createdAt,value
2023-04-16T00:00:20.946Z,55.85
2023-04-16T00:02:53.235Z,53.22
2023-04-16T00:05:26.189Z,64.05
2023-04-16T00:07:57.496Z,64.97
2023-04-16T00:10:29.999Z,69.40
2023-04-16T00:13:03.443Z,58.78
2023-04-16T00:15:34.744Z,64.18
2023-04-16T00:18:06.601Z,51.70
2023-04-16T00:20:38.778Z,53.28
2023-04-16T00:23:11.360Z,66.47
2023-04-16T00:25:43.333Z,57.28
2023-04-16T00:30:46.260Z,44.25
2023-04-16T00:33:19.838Z,53.22
2023-04-16T00:35:51.896Z,62.65
2023-04-16T00:38:25.264Z,55.33
2023-04-16T00:40:56.546Z,69.28
2023-04-16T00:43:30.081Z,60.75
2023-04-16T00:46:02.767Z,61.67
2023-04-16T00:48:34.924Z,66.60
2023-04-16T00:51:11.651Z,64.88
2023-04-16T00:53:44.412Z,47.33
2023-04-16T00:56:17.872Z,50.85
2023-04-16T00:58:50.302Z,47.75
2023-04-16T01:01:21.673Z,43.60
2023-04-16T01:03:54.559Z,42.90
2023-04-16T01:06:27.143Z,47.22
2023-04-16T01:08:59.898Z,46.85
2023-04-16T01:11:32.647Z,33.10
2023-04-16T01:14:03.747Z,52.95
2023-04-16T01:16:35.455Z,45.63
2023-04-16T01:19:07.847Z,48.85
2023-04-16T01:21:39.953Z,52.58
2023-04-16T01:24:11.854Z,44.60
2023-04-16T01:26:44.565Z,51.10
2023-04-16T01:29:14.998Z,43.53
2023-04-16T01:31:48.362Z,49.10
2023-04-16T01:34:31.796Z,53.47
2023-04-16T01:37:03.671Z,61.13
2023-04-16T01:39:34.793Z,62.78
2023-04-16T01:42:07.533Z,56.35
2023-04-16T01:44:38.719Z,59.90
2023-04-16T01:47:10.445Z,61.50
2023-04-16T01:49:42.437Z,66.60
2023-04-16T01:52:15.144Z,68.43
2023-04-16T01:57:19.569Z,74.03
2023-04-16T01:59:51.497Z,60.08
2023-04-16T02:02:28.185Z,62.88
2023-04-16T02:05:00.817Z,50.83
2023-04-16T02:07:34.409Z,55.08
2023-04-16T02:10:07.016Z,52.47
2023-04-16T02:12:38.978Z,55.53
2023-04-16T02:15:11.719Z,50.95
2023-04-16T02:17:44.076Z,50.63
2023-04-16T02:20:18.487Z,54.58
2023-04-16T02:22:58.552Z,47.97
2023-04-16T02:25:31.593Z,59.42
2023-04-16T02:28:03.677Z,55.22
2023-04-16T02:30:41.711Z,64.35
2023-04-16T02:33:15.480Z,47.50
2023-04-16T02:35:59.712Z,53.30
2023-04-16T02:38:30.852Z,57.33
2023-04-16T02:43:36.780Z,59.17
2023-04-16T02:46:08.853Z,101.93
2023-04-16T02:48:39.030Z,66.00
2023-04-16T02:51:07.996Z,64.00
2023-04-16T02:53:37.754Z,74.50
2023-04-16T02:56:07.488Z,54.22
2023-04-16T02:58:37.258Z,54.88
2023-04-16T03:01:06.916Z,59.95
2023-04-16T03:03:35.950Z,66.70
2023-04-16T03:06:05.145Z,70.15
2023-04-16T03:08:34.672Z,52.85
2023-04-16T03:11:03.833Z,52.50
2023-04-16T03:13:33.330Z,73.55
2023-04-16T03:16:02.735Z,53.55
2023-04-16T03:18:31.723Z,46.33
2023-04-16T03:21:00.969Z,43.58
2023-04-16T03:23:30.080Z,53.92
2023-04-16T03:25:59.531Z,47.60
2023-04-16T03:28:29.156Z,45.47
2023-04-16T03:30:58.408Z,43.75
2023-04-16T03:33:28.202Z,45.88
2023-04-16T03:35:58.702Z,46.28
2023-04-16T03:38:31.764Z,46.83
2023-04-16T03:41:01.369Z,53.50
2023-04-16T03:43:32.574Z,37.08
2023-04-16T03:46:01.922Z,40.75
2023-04-16T03:48:31.023Z,47.22
2023-04-16T03:51:00.857Z,48.67
2023-04-16T03:53:30.907Z,42.17
2023-04-16T03:56:00.495Z,40.67
2023-04-16T03:58:29.871Z,34.05
2023-04-16T04:00:59.459Z,39.95
2023-04-16T04:03:29.145Z,50.08
2023-04-16T04:05:58.818Z,53.35
2023-04-16T04:11:00.262Z,44.63
2023-04-16T04:13:30.033Z,30.17
2023-04-16T04:16:00.347Z,36.95
2023-04-16T04:18:30.390Z,39.25
2023-04-16T04:21:01.540Z,44.72
2023-04-16T04:23:32.202Z,34.53
2023-04-16T04:26:04.831Z,44.92
2023-04-16T04:28:34.819Z,46.22
2023-04-16T04:31:04.264Z,39.95
2023-04-16T04:33:33.485Z,33.92
2023-04-16T04:36:02.825Z,47.95
2023-04-16T04:38:33.456Z,45.60
2023-04-16T04:41:02.465Z,45.97
2023-04-16T04:43:35.573Z,146.15
2023-04-16T04:46:04.885Z,55.45
2023-04-16T04:48:34.689Z,35.47
2023-04-16T04:51:05.511Z,40.28
2023-04-16T04:53:35.120Z,37.95
2023-04-16T04:56:12.248Z,31.67
2023-04-16T04:58:43.411Z,47.72
2023-04-16T05:01:12.670Z,43.00
2023-04-16T05:03:42.108Z,46.20
2023-04-16T05:06:11.833Z,39.95
2023-04-16T05:08:40.781Z,42.25
2023-04-16T05:11:09.994Z,38.42
2023-04-16T05:13:39.116Z,36.85
2023-04-16T05:16:08.657Z,39.63
2023-04-16T05:18:38.389Z,40.97
2023-04-16T05:21:07.395Z,43.92
2023-04-16T05:23:36.416Z,41.72
2023-04-16T05:26:06.163Z,42.67
2023-04-16T05:28:35.495Z,32.05
2023-04-16T05:31:04.709Z,42.17
2023-04-16T05:33:34.711Z,41.50
2023-04-16T05:36:03.638Z,41.55
2023-04-16T05:38:33.042Z,45.22
2023-04-16T05:41:02.180Z,30.98
2023-04-16T05:43:31.581Z,39.60
2023-04-16T05:46:00.825Z,40.55
2023-04-16T05:48:29.898Z,34.10
2023-04-16T05:50:59.666Z,33.40
2023-04-16T05:53:28.871Z,42.55
2023-04-16T05:55:57.977Z,31.58
2023-04-16T05:58:27.306Z,43.47
2023-04-16T06:00:56.919Z,27.98
2023-04-16T06:03:26.109Z,36.15
2023-04-16T06:05:55.648Z,36.70
2023-04-16T06:08:25.426Z,30.30
2023-04-16T06:10:54.879Z,47.63
2023-04-16T06:13:24.045Z,38.97
2023-04-16T06:15:54.031Z,35.40
2023-04-16T06:22:45.992Z,27.10
2023-04-16T06:25:16.819Z,34.08
2023-04-16T06:27:47.732Z,43.65
2023-04-16T06:30:17.776Z,28.05
2023-04-16T06:32:47.659Z,46.28
2023-04-16T06:35:17.030Z,41.83
2023-04-16T06:37:46.817Z,42.78
2023-04-16T06:40:17.656Z,33.30
2023-04-16T06:42:46.942Z,32.65
2023-04-16T06:45:16.685Z,45.92
2023-04-16T06:47:45.755Z,32.85
2023-04-16T06:50:14.968Z,32.83
2023-04-16T06:52:44.224Z,36.47
2023-04-16T06:55:14.470Z,29.67
2023-04-16T06:57:43.798Z,34.90
2023-04-16T07:00:13.514Z,35.47
2023-04-16T07:02:42.985Z,37.55
2023-04-16T07:05:12.432Z,31.45
2023-04-16T07:07:41.548Z,32.05
2023-04-16T07:10:11.366Z,33.85
2023-04-16T07:12:40.680Z,37.15
2023-04-16T07:19:34.100Z,31.15
2023-04-16T07:22:03.874Z,29.77
2023-04-16T07:24:33.589Z,34.17
2023-04-16T07:27:03.119Z,35.20
2023-04-16T07:29:32.091Z,36.20
2023-04-16T07:32:02.069Z,28.42
2023-04-16T07:34:31.760Z,37.70
2023-04-16T07:37:00.670Z,31.55
2023-04-16T07:39:32.679Z,47.50
2023-04-16T07:44:31.748Z,22.88
2023-04-16T07:47:01.619Z,31.77
2023-04-16T07:49:32.202Z,35.30
2023-04-16T07:52:01.430Z,20.88
2023-04-16T07:58:52.786Z,38.53
2023-04-16T08:01:23.212Z,31.58
2023-04-16T08:03:53.130Z,27.55
2023-04-16T08:06:22.144Z,40.13
2023-04-16T08:08:51.137Z,32.70
2023-04-16T08:11:20.272Z,41.10
2023-04-16T08:13:49.333Z,34.05
2023-04-16T08:16:18.452Z,51.03
2023-04-16T08:18:47.833Z,28.92
2023-04-16T08:21:17.096Z,45.28
2023-04-16T08:23:46.463Z,46.00
2023-04-16T08:26:15.883Z,45.28
2023-04-16T08:28:44.912Z,47.45
2023-04-16T08:31:14.183Z,32.40
2023-04-16T08:33:43.349Z,49.42
2023-04-16T08:36:12.614Z,29.08
2023-04-16T08:38:41.665Z,39.83
2023-04-16T08:41:14.096Z,38.22
2023-04-16T08:43:46.710Z,47.30
2023-04-16T08:46:18.752Z,47.20
2023-04-16T08:48:54.474Z,36.72
2023-04-16T08:51:25.332Z,51.65
2023-04-16T08:54:01.112Z,45.65
2023-04-16T08:56:32.028Z,103.07
2023-04-16T08:59:06.117Z,42.28
2023-04-16T09:01:36.586Z,43.85
2023-04-16T09:04:08.670Z,63.13
2023-04-16T09:06:38.951Z,53.38
2023-04-16T09:09:09.359Z,46.22
2023-04-16T09:11:40.655Z,42.75
2023-04-16T09:14:12.901Z,47.63
2023-04-16T09:16:43.081Z,48.15
2023-04-16T09:19:12.662Z,48.90
2023-04-16T09:21:43.238Z,37.92
2023-04-16T09:24:12.951Z,32.72
2023-04-16T09:26:46.550Z,35.80
2023-04-16T09:29:38.520Z,44.40
2023-04-16T09:32:12.806Z,51.95
2023-04-16T09:35:00.138Z,32.55
2023-04-16T09:37:31.262Z,63.78
2023-04-16T09:40:03.069Z,45.15
2023-04-16T09:42:37.941Z,33.92
2023-04-16T09:45:07.767Z,46.80
2023-04-16T09:47:44.820Z,38.22
2023-04-16T09:50:21.829Z,45.88
2023-04-16T09:52:52.323Z,38.38
2023-04-16T09:55:29.028Z,31.70
2023-04-16T09:58:02.576Z,30.45
2023-04-16T10:00:35.052Z,32.83
2023-04-16T10:03:11.810Z,42.88
2023-04-16T10:05:41.099Z,27.08
2023-04-16T10:08:16.002Z,23.42
2023-04-16T10:10:45.817Z,28.88
2023-04-16T10:13:18.455Z,68.30
2023-04-16T10:15:48.130Z,45.85
2023-04-16T10:22:39.593Z,26.95
2023-04-16T10:25:09.991Z,26.52
2023-04-16T10:27:39.964Z,38.22
2023-04-16T10:30:10.691Z,28.00
2023-04-16T10:32:40.610Z,32.72
2023-04-16T10:35:10.113Z,33.28
2023-04-16T10:37:42.424Z,35.70
2023-04-16T10:43:00.843Z,36.92
2023-04-16T10:45:56.485Z,30.58
2023-04-16T10:48:30.924Z,27.38
2023-04-16T10:51:07.813Z,31.08
2023-04-16T10:53:39.028Z,35.17
2023-04-16T10:56:07.999Z,36.72
2023-04-16T10:58:38.329Z,35.13
2023-04-16T11:01:14.979Z,26.27
2023-04-16T11:03:50.864Z,29.42
2023-04-16T11:06:27.130Z,33.03
2023-04-16T11:08:56.754Z,33.40
2023-04-16T11:11:25.768Z,36.03
2023-04-16T11:13:58.117Z,28.35
2023-04-16T11:16:27.624Z,44.85
2023-04-16T11:18:57.981Z,28.52
2023-04-16T11:21:28.233Z,41.38
2023-04-16T11:23:59.900Z,35.47
2023-04-16T11:26:32.181Z,32.13
2023-04-16T11:33:28.394Z,34.05
2023-04-16T11:36:01.850Z,35.05
2023-04-16T11:38:44.196Z,34.22
2023-04-16T11:41:20.524Z,36.55
2023-04-16T11:43:49.655Z,40.30
2023-04-16T11:46:27.277Z,41.33
2023-04-16T11:48:57.289Z,41.30
2023-04-16T11:51:26.605Z,45.90
2023-04-16T11:53:57.138Z,49.25
2023-04-16T11:56:31.904Z,41.92
2023-04-16T11:59:17.548Z,35.65
2023-04-16T12:01:52.872Z,35.55
2023-04-16T12:04:26.831Z,38.83
2023-04-16T12:07:08.772Z,52.53
2023-04-16T12:09:40.798Z,50.45
2023-04-16T12:12:32.543Z,44.58
2023-04-16T12:15:06.740Z,54.08
2023-04-16T12:17:37.757Z,46.20
2023-04-16T12:20:12.869Z,39.80
2023-04-16T12:22:46.103Z,30.77
2023-04-16T12:25:26.170Z,49.78
2023-04-16T12:27:57.565Z,46.28
2023-04-16T12:30:27.860Z,53.17
2023-04-16T12:37:18.818Z,64.78
2023-04-16T12:39:48.177Z,367.40
2023-04-16T12:42:17.459Z,71.07
2023-04-16T12:44:46.702Z,42.42
2023-04-16T12:47:16.103Z,54.92
2023-04-16T12:49:45.805Z,44.22
2023-04-16T12:52:14.868Z,47.72
2023-04-16T12:54:44.196Z,39.00
2023-04-16T12:57:13.549Z,43.45
2023-04-16T12:59:42.832Z,51.10
2023-04-16T13:02:12.222Z,50.70
2023-04-16T13:04:41.442Z,47.30
2023-04-16T13:07:10.803Z,66.75
2023-04-16T13:09:40.604Z,39.67
2023-04-16T13:12:09.823Z,58.38
2023-04-16T13:14:40.112Z,71.05
2023-04-16T13:17:09.358Z,48.47
2023-04-16T13:19:38.457Z,46.67
2023-04-16T13:22:07.868Z,69.38
2023-04-16T13:24:36.927Z,41.58
2023-04-16T13:27:06.904Z,58.10
2023-04-16T13:29:39.452Z,30.38
2023-04-16T13:32:08.804Z,38.17
2023-04-16T13:34:38.148Z,52.60
2023-04-16T13:37:08.048Z,56.53
2023-04-16T13:39:37.121Z,36.17
2023-04-16T13:42:06.619Z,33.75
2023-04-16T13:44:35.812Z,31.15
2023-04-16T13:47:05.289Z,66.22
2023-04-16T13:49:36.341Z,37.63
2023-04-16T13:52:05.911Z,37.58
2023-04-16T13:54:34.796Z,38.50
2023-04-16T13:57:04.131Z,44.92
2023-04-16T13:59:33.665Z,37.83
2023-04-16T14:02:03.369Z,42.88
2023-04-16T14:04:32.673Z,36.85
2023-04-16T14:07:02.272Z,43.63
2023-04-16T14:09:31.689Z,53.40
2023-04-16T14:12:00.975Z,35.47
2023-04-16T14:14:30.246Z,54.58
2023-04-16T14:17:04.261Z,48.35
2023-04-16T14:19:33.618Z,61.25
2023-04-16T14:22:02.667Z,64.15
2023-04-16T14:24:31.834Z,64.07
2023-04-16T14:27:01.030Z,61.58
2023-04-16T14:29:30.322Z,66.13
2023-04-16T14:31:59.337Z,56.75
2023-04-16T14:34:28.800Z,57.47
2023-04-16T14:36:57.974Z,50.58
2023-04-16T14:39:27.422Z,45.75
2023-04-16T14:41:56.732Z,48.65
2023-04-16T14:44:25.686Z,26.42
2023-04-16T14:46:55.005Z,35.45
2023-04-16T14:49:24.149Z,39.50
2023-04-16T14:51:53.604Z,49.65
2023-04-16T14:54:23.242Z,50.10
2023-04-16T14:56:52.375Z,65.10
2023-04-16T14:59:21.504Z,52.70
2023-04-16T15:01:50.530Z,69.80
2023-04-16T15:04:20.109Z,72.00
2023-04-16T15:06:50.317Z,71.30
2023-04-16T15:09:19.410Z,69.93
2023-04-16T15:11:48.537Z,68.38
2023-04-16T15:14:17.877Z,73.85
2023-04-16T15:16:48.027Z,50.42
2023-04-16T15:19:17.591Z,52.20
2023-04-16T15:21:48.739Z,47.95
2023-04-16T15:24:18.254Z,39.17
2023-04-16T15:26:47.325Z,48.33
2023-04-16T15:29:16.751Z,176.82
2023-04-16T15:31:46.109Z,29.08
2023-04-16T15:34:15.065Z,28.35
2023-04-16T15:36:44.207Z,47.20
2023-04-16T15:39:13.559Z,43.30
2023-04-16T15:41:57.523Z,47.70
2023-04-16T15:44:31.283Z,51.92
2023-04-16T15:47:01.427Z,34.33
2023-04-16T15:49:30.840Z,39.42
2023-04-16T15:51:59.861Z,41.97
2023-04-16T15:54:28.921Z,29.55
2023-04-16T15:56:59.856Z,38.90
2023-04-16T15:59:29.067Z,26.83
2023-04-16T16:01:58.300Z,35.63
2023-04-16T16:04:29.405Z,35.85
2023-04-16T16:06:58.856Z,30.42
2023-04-16T16:09:28.868Z,31.27
2023-04-16T16:12:00.826Z,45.83
2023-04-16T16:14:30.069Z,30.98
2023-04-16T16:16:59.203Z,34.85
2023-04-16T16:19:28.456Z,34.33
2023-04-16T16:21:57.653Z,43.53
2023-04-16T16:24:27.760Z,31.67
2023-04-16T16:26:57.798Z,43.15
2023-04-16T16:29:26.949Z,37.20
2023-04-16T16:31:56.293Z,51.97
2023-04-16T16:34:25.424Z,39.67
2023-04-16T16:36:54.642Z,52.28
2023-04-16T16:39:25.461Z,47.03
2023-04-16T16:41:54.879Z,45.25
2023-04-16T16:44:24.272Z,40.97
2023-04-16T16:46:53.208Z,43.10
2023-04-16T16:49:22.494Z,46.67
2023-04-16T16:51:51.934Z,48.50
2023-04-16T16:54:21.043Z,37.58
2023-04-16T16:56:52.652Z,41.05
2023-04-16T16:59:21.815Z,42.08
2023-04-16T17:01:51.106Z,51.92
2023-04-16T17:04:20.516Z,49.55
2023-04-16T17:06:49.884Z,42.63
2023-04-16T17:09:19.232Z,49.15
2023-04-16T17:11:48.396Z,40.80
2023-04-16T17:14:17.586Z,52.58
2023-04-16T17:16:50.933Z,63.35
2023-04-16T17:19:20.271Z,30.50
2023-04-16T17:21:49.410Z,30.13
2023-04-16T17:24:19.230Z,33.05
2023-04-16T17:26:49.117Z,31.75
2023-04-16T17:29:18.268Z,31.02
2023-04-16T17:31:47.475Z,34.10
2023-04-16T17:34:16.857Z,55.67
2023-04-16T17:36:47.876Z,29.40
2023-04-16T17:39:17.351Z,37.22
2023-04-16T17:41:46.698Z,41.70
2023-04-16T17:44:16.240Z,32.80
2023-04-16T17:46:45.814Z,40.63
2023-04-16T17:49:14.866Z,40.90
2023-04-16T17:51:45.551Z,32.70
2023-04-16T17:54:14.990Z,56.50
2023-04-16T17:56:43.867Z,113.00
2023-04-16T17:59:13.220Z,278.73
2023-04-16T18:01:42.775Z,136.65
2023-04-16T18:04:12.357Z,227.38
2023-04-16T18:06:42.286Z,174.52
2023-04-16T18:09:11.216Z,55.78
2023-04-16T18:11:40.441Z,36.50
2023-04-16T18:14:10.985Z,35.38
2023-04-16T18:16:40.615Z,40.90
2023-04-16T18:19:09.635Z,82.68
2023-04-16T18:21:38.821Z,68.50
2023-04-16T18:24:08.605Z,45.08
2023-04-16T18:26:37.788Z,264.73
2023-04-16T18:29:07.170Z,173.35
2023-04-16T18:31:36.631Z,66.20
2023-04-16T18:34:06.445Z,36.85
2023-04-16T18:36:35.987Z,40.50
2023-04-16T18:39:05.109Z,139.55
2023-04-16T18:41:34.223Z,58.75
2023-04-16T18:44:03.557Z,40.55
2023-04-16T18:46:32.889Z,69.90
2023-04-16T18:49:02.374Z,91.63
2023-04-16T18:51:31.845Z,79.75
2023-04-16T18:54:01.527Z,77.45
2023-04-16T18:56:33.350Z,49.15
2023-04-16T18:59:03.411Z,61.20
2023-04-16T19:01:32.493Z,41.08
2023-04-16T19:04:02.699Z,44.13
2023-04-16T19:06:32.895Z,46.10
2023-04-16T19:09:02.411Z,40.13
2023-04-16T19:11:31.634Z,40.33
2023-04-16T19:14:03.184Z,47.33
2023-04-16T19:16:32.959Z,38.53
2023-04-16T19:19:02.382Z,49.90
2023-04-16T19:21:31.913Z,38.47
2023-04-16T19:24:01.210Z,51.75
2023-04-16T19:26:30.252Z,83.10
2023-04-16T19:28:59.469Z,62.13
2023-04-16T19:31:28.980Z,58.72
2023-04-16T19:33:58.073Z,67.13
2023-04-16T19:36:27.452Z,59.88
2023-04-16T19:38:56.789Z,60.03
2023-04-16T19:41:25.886Z,63.78
2023-04-16T19:43:56.813Z,67.40
2023-04-16T19:46:26.055Z,101.53
2023-04-16T19:48:54.965Z,64.05
2023-04-16T19:51:24.761Z,84.45
2023-04-16T19:53:54.690Z,80.10
2023-04-16T19:56:23.839Z,65.75
2023-04-16T19:58:53.211Z,63.42
2023-04-16T20:01:23.415Z,67.13
2023-04-16T20:03:53.177Z,68.68
2023-04-16T20:06:23.501Z,58.65
2023-04-16T20:08:53.952Z,63.40
2023-04-16T20:11:23.756Z,85.32
2023-04-16T20:13:54.221Z,73.53
2023-04-16T20:16:24.878Z,86.75
2023-04-16T20:18:58.470Z,91.78
2023-04-16T20:21:29.654Z,81.22
2023-04-16T20:24:03.256Z,88.57
2023-04-16T20:26:35.184Z,80.93
2023-04-16T20:29:05.155Z,80.10
2023-04-16T20:31:37.785Z,84.53
2023-04-16T20:34:09.917Z,75.07
2023-04-16T20:36:41.438Z,76.77
2023-04-16T20:39:13.554Z,85.68
2023-04-16T20:41:46.770Z,82.07
2023-04-16T20:44:21.048Z,86.22
2023-04-16T20:46:56.469Z,123.07
2023-04-16T20:49:29.710Z,187.85
2023-04-16T20:52:01.770Z,179.68
2023-04-16T20:57:05.378Z,246.00
2023-04-16T20:59:40.002Z,220.75
2023-04-16T21:02:11.797Z,221.95
2023-04-16T21:04:45.010Z,179.38
2023-04-16T21:07:17.421Z,160.30
2023-04-16T21:09:49.945Z,152.00
2023-04-16T21:12:22.800Z,142.48
2023-04-16T21:14:54.937Z,146.82
2023-04-16T21:17:27.550Z,139.18
2023-04-16T21:20:00.703Z,151.88
2023-04-16T21:22:32.820Z,146.55
2023-04-16T21:25:04.849Z,119.78
2023-04-16T21:27:36.573Z,122.30
2023-04-16T21:30:09.344Z,123.13
2023-04-16T21:32:42.151Z,126.40
2023-04-16T21:35:15.322Z,101.53
2023-04-16T21:37:46.591Z,96.43
2023-04-16T21:40:19.490Z,76.05
2023-04-16T21:42:51.392Z,79.97
2023-04-16T21:45:23.263Z,69.70
2023-04-16T21:47:57.121Z,81.65
2023-04-16T21:50:28.778Z,81.50
2023-04-16T21:53:00.776Z,73.57
2023-04-16T21:55:33.283Z,76.38
2023-04-16T21:58:06.140Z,92.18
2023-04-16T22:00:37.488Z,75.85
2023-04-16T22:03:11.597Z,60.15
2023-04-16T22:05:45.114Z,84.72
2023-04-16T22:08:24.705Z,104.05
2023-04-16T22:11:02.087Z,96.35
2023-04-16T22:13:38.910Z,89.63
2023-04-16T22:16:11.769Z,98.28
2023-04-16T22:18:45.095Z,97.93
2023-04-16T22:21:17.076Z,97.63
2023-04-16T22:23:49.188Z,88.63
2023-04-16T22:26:21.717Z,83.20
2023-04-16T22:28:53.786Z,77.07
2023-04-16T22:31:26.474Z,78.40
2023-04-16T22:34:00.940Z,91.50
2023-04-16T22:36:35.275Z,212.43
2023-04-16T22:39:11.635Z,91.72
2023-04-16T22:41:43.413Z,77.90
2023-04-16T22:44:15.288Z,75.30
2023-04-16T22:46:48.814Z,81.00
2023-04-16T22:49:20.055Z,92.03
2023-04-16T22:51:52.581Z,69.95
2023-04-16T22:54:25.405Z,68.35
2023-04-16T22:56:59.031Z,76.15
2023-04-16T22:59:31.848Z,73.00
2023-04-16T23:02:03.818Z,62.63
2023-04-16T23:04:37.029Z,70.00
2023-04-16T23:07:09.922Z,62.13
2023-04-16T23:09:42.694Z,56.28
2023-04-16T23:12:17.691Z,52.78
2023-04-16T23:14:50.405Z,50.42
2023-04-16T23:17:21.616Z,45.72
2023-04-16T23:19:54.410Z,46.42
2023-04-16T23:22:27.043Z,45.05
2023-04-16T23:25:00.298Z,42.60
2023-04-16T23:27:33.661Z,42.33
2023-04-16T23:30:07.634Z,43.85
2023-04-16T23:32:39.712Z,40.10
2023-04-16T23:37:44.962Z,35.67
2023-04-16T23:40:18.694Z,43.50
2023-04-16T23:42:50.679Z,38.60
2023-04-16T23:45:23.345Z,65.82
2023-04-16T23:50:28.824Z,47.97
2023-04-16T23:53:00.478Z,48.65
2023-04-16T23:55:34.094Z,28.33
2023-04-16T23:58:06.094Z,31.52
